Portada
METAR-TAF:

METAR-TAF

Aeroports :

Pointe-Noire, Congo

latitud: 04-49S, longitud: 011-54E, altitud: 17 m

Observació

L'informe es va fer fa 1 hora i 23 minuts, a les 19:00 UTC
Vent 5 kt del Sud/Sud-Oest
Temperatura 29°C
Humitat 84%
Pressió 1008 hPa
Visibilitat 10 km o més
Núvols disperses a una alçada de 1000 ft

METAR: FCPP 221900Z 21005KT 9999 SCT010 29/26 Q1008 NOSIG

Hora: 21:23 (20:23 UTC)

Pronòstic

L'informe es va fer fa 3 hores i 23 minuts, a les 17:00 UTC
Pronòstic vàlid del 22 a les 18 UTC al 23 a les 18 UTC
Vent 7 kt del Sud
Visibilitat: 9000 m
Núvols disperses a una alçada de 1000 ft
Probabilitat 30%
l' 23 a les 16 UTC al 23 a les 18 UTC
Escasses núvols a una alçada de 1000 ft
Escasses núvols a una alçada de 3000 ft, Cumulonimbus.

TAF: FCPP 221700Z 2218/2318 19007KT 9000 SCT010 PROB30 2316/2318 FEW010 FEW030CB

Observacions i pronòstics meteorològics de més de 4000 aeroports (METAR i TAF).

Les estacions disponibles són els punts grocs i vermells al mapa.

Posi el ratolí al punt desitjat per veure el nom de l'estació.

Feu clic per veure les observacions i els pronòstics meteorològics.

Per canviar el mapa: feu clic els botons verds amb una creu de color negre per apropar; al botó verd amb un guió per allunyar la imatge; o en les fletxes verdes per a mapes adjacents.


METAR-TAF: